• Join FlightAware (Why Join?)
  • Login
  • US Flag 
08:55AM EDT


 

Airport Tracker/Info


-or-


 

Live Flight TrackerFlight Track Log ✈ UPS1121 ✈ 02-May-2013 ✈ KBDL - KPHL

Flight Track Log - Related Links

Times and Time Zones

All times are in EDT time to prevent confusion due to time zone crossing. See the UPS1121 flight status page for this flight to view local times or setup timezone preferences in your user account.

Time Position Orientation Groundspeed Altitude Reporting Facility
EDT Latitude Longitude Course Direction KTS MPH feet Rate Location/Type
09:57PM 41.9458 -72.6997 43° Northeast 115 132 1,300  Level Boston Center
09:58PM 41.9750 -72.6636 43° Northeast 198 228 3,000 2,640 Climbing Boston Center
10:04PM 41.4780 -72.3540 43° Northeast 485 558 20,000 2,580 Climbing FlightAware
10:04PM 41.4130 -72.3470 175° South 501 577 20,000  Level FlightAware
10:05PM 41.2820 -72.3580 184° South 506 582 20,000  Level FlightAware
10:06PM 41.2140 -72.3980 204° Southwest 504 580 20,000  Level FlightAware
10:07PM 41.0900 -72.5080 214° Southwest 493 567 20,000  Level FlightAware
10:07PM 41.0346 -72.5571 214° Southwest 493 567 20,000  Level FlightAware ADS-B
10:08PM 40.9741 -72.6106 214° Southwest 494 568 20,000  Level FlightAware ADS-B
10:08PM 40.9167 -72.6613 214° Southwest 492 566 20,000  Level FlightAware ADS-B
10:09PM 40.8522 -72.7180 214° Southwest 492 566 20,000  Level FlightAware ADS-B
10:09PM 40.7951 -72.7679 213° Southwest 489 563 20,000  Level FlightAware ADS-B
10:10PM 40.7330 -72.8224 214° Southwest 488 562 20,000  Level FlightAware ADS-B
10:10PM 40.6766 -72.8720 214° Southwest 488 562 20,000  Level FlightAware ADS-B
10:11PM 40.6192 -72.9223 214° Southwest 486 559 20,000  Level FlightAware ADS-B
10:11PM 40.5612 -72.9730 214° Southwest 486 559 20,000  Level FlightAware ADS-B
10:12PM 40.5047 -73.0223 214° Southwest 485 558 20,000  Level FlightAware ADS-B
10:13PM 40.4480 -73.0718 214° Southwest 485 558 20,000  Level FlightAware ADS-B
10:13PM 40.3667 -73.1425 214° Southwest 485 558 20,000  Level FlightAware ADS-B
10:14PM 40.3105 -73.1912 213° Southwest 486 559 20,000  Level FlightAware ADS-B
10:14PM 40.2528 -73.2411 213° Southwest 486 559 20,000  Level FlightAware ADS-B
10:15PM 40.1962 -73.2899 213° Southwest 486 559 20,000 -300 Level FlightAware ADS-B
10:15PM 40.1397 -73.3386 213° Southwest 484 557 19,700 -1,020 Descending FlightAware ADS-B
10:16PM 40.0823 -73.3880 213° Southwest 481 554 19,000 -1,260 Descending FlightAware ADS-B
10:16PM 40.0128 -73.4477 213° Southwest 476 548 18,300 -900 Descending FlightAware ADS-B
10:17PM 39.9573 -73.4953 213° Southwest 469 540 18,000 -420 Descending FlightAware ADS-B
10:17PM 39.9305 -73.5192 214° Southwest 467 537 18,000  Level FlightAware ADS-B
10:18PM 39.8931 -73.5608 220° Southwest 467 537 18,000  Level FlightAware ADS-B
10:18PM 39.8568 -73.6135 228° Southwest 466 536 18,000  Level FlightAware ADS-B
10:19PM 39.8053 -73.6953 231° Southwest 468 539 18,000  Level FlightAware ADS-B
10:19PM 39.7630 -73.7624 231° Southwest 467 537 18,000  Level FlightAware ADS-B
10:20PM 39.7214 -73.8279 230° Southwest 467 537 18,000  Level FlightAware ADS-B
10:20PM 39.6781 -73.8959 230° Southwest 463 533 18,000 -240 Level FlightAware ADS-B
10:21PM 39.6347 -73.9641 230° Southwest 463 533 17,800 -1,500 Descending FlightAware ADS-B
10:21PM 39.5941 -74.0275 230° Southwest 449 517 16,500 -3,000 Descending FlightAware ADS-B
10:22PM 39.5572 -74.0857 231° Southwest 445 512 14,900 -3,420 Descending FlightAware ADS-B
10:22PM 39.5430 -74.1143 237° Southwest 440 506 14,200 -3,000 Descending FlightAware ADS-B
10:22PM 39.5377 -74.1285 244° Southwest 439 505 14,000 -780 Descending FlightAware ADS-B
10:23PM 39.5251 -74.2303 261° West 434 499 13,600 -660 Descending FlightAware ADS-B
10:23PM 39.5252 -74.2433 271° West 418 481 13,500 -1,980 Descending FlightAware ADS-B
10:24PM 39.5278 -74.3767 271° West 420 483 11,700 -1,740 Descending FlightAware ADS-B
10:24PM 39.5296 -74.4660 272° West 416 479 10,900 -1,440 Descending FlightAware ADS-B
10:25PM 39.5314 -74.5553 272° West 421 484 10,000 -1,260 Descending FlightAware ADS-B
10:25PM 39.5321 -74.6003 271° West 398 458 9,800 -420 Descending FlightAware ADS-B
10:26PM 39.5330 -74.6567 271° West 352 405 9,700 -480 Descending FlightAware ADS-B
10:26PM 39.5337 -74.6915 272° West 319 367 9,500 -1,140 Descending FlightAware ADS-B
10:26PM 39.5343 -74.7200 272° West 305 351 9,100 -1,500 Descending FlightAware ADS-B
10:26PM 39.5351 -74.7487 272° West 303 349 8,700 -960 Descending FlightAware ADS-B
10:27PM 39.5359 -74.7783 272° West 308 354 8,600 -240 Descending FlightAware ADS-B
10:27PM 39.5365 -74.8064 272° West 310 357 8,600  Level FlightAware ADS-B
10:27PM 39.5370 -74.8247 272° West 310 357 8,600  Level FlightAware ADS-B
10:27PM 39.5374 -74.8314 274° West 309 356 8,600  Level FlightAware ADS-B
10:27PM 39.5380 -74.8368 278° West 309 356 8,600  Level FlightAware ADS-B
10:27PM 39.5392 -74.8440 282° West 306 352 8,600  Level FlightAware ADS-B
10:27PM 39.5409 -74.8502 290° West 303 349 8,600 -780 Level FlightAware ADS-B
10:27PM 39.5434 -74.8571 295° West 299 344 8,500 -720 Descending FlightAware ADS-B
10:27PM 39.5471 -74.8646 303° West 295 339 8,500 -720 Level FlightAware ADS-B
10:27PM 39.5504 -74.8697 310° West 291 335 8,400 -1,500 Descending FlightAware ADS-B
10:28PM 39.5541 -74.8743 316° Northwest 288 331 8,300 -900 Descending FlightAware ADS-B
10:28PM 39.5576 -74.8779 322° Northwest 284 327 8,300 -1,020 Level FlightAware ADS-B
10:28PM 39.5612 -74.8808 328° Northwest 280 322 8,200 -1,140 Descending FlightAware ADS-B
10:28PM 39.5698 -74.8860 335° Northwest 274 315 8,100 -1,320 Descending FlightAware ADS-B
10:28PM 39.5876 -74.8939 341° North 273 314 7,700 -720 Descending FlightAware ADS-B
10:28PM 39.6239 -74.9091 342° North 277 319 7,600 -180 Descending FlightAware ADS-B
10:29PM 39.6437 -74.9172 343° North 279 321 7,600  Level FlightAware ADS-B
10:29PM 39.6637 -74.9254 342° North 280 322 7,600  Level FlightAware ADS-B
10:29PM 39.6841 -74.9338 342° North 279 321 7,600 -1,140 Level FlightAware ADS-B
10:30PM 39.7029 -74.9416 342° North 272 313 7,000 -2,400 Descending FlightAware ADS-B
10:30PM 39.7225 -74.9496 343° North 275 316 6,300 -2,340 Descending FlightAware ADS-B
10:30PM 39.7414 -74.9572 343° North 277 319 5,800 -1,800 Descending FlightAware ADS-B
10:30PM 39.7610 -74.9649 343° North 278 320 5,400 -1,740 Descending FlightAware ADS-B
10:31PM 39.7801 -74.9723 343° North 277 319 4,900 -1,980 Descending FlightAware ADS-B
10:31PM 39.8026 -74.9807 344° North 276 318 4,300 -1,440 Descending FlightAware ADS-B
10:31PM 39.8426 -74.9843 356° North 255 293 3,700 -1,140 Descending FlightAware ADS-B
10:32PM 39.8476 -74.9818 21° North 250 288 3,600 -300 Descending FlightAware ADS-B
10:32PM 39.8634 -74.9727 24° Northeast 235 270 3,600  Level FlightAware ADS-B
10:32PM 39.8782 -74.9642 24° Northeast 223 257 3,600 -180 Level FlightAware ADS-B
10:32PM 39.8961 -74.9542 23° Northeast 209 241 3,500 -420 Descending FlightAware ADS-B
10:33PM 39.9081 -74.9475 23° Northeast 202 232 3,400 -660 Descending FlightAware ADS-B
10:33PM 39.9123 -74.9458 17° North 203 234 3,300 -1,200 Descending FlightAware ADS-B
10:33PM 39.9165 -74.9450 North 205 236 3,200 -1,200 Descending FlightAware ADS-B
10:33PM 39.9215 -74.9457 354° North 208 239 3,100 -720 Descending FlightAware ADS-B
10:33PM 39.9259 -74.9479 339° North 212 244 3,100 -720 Level FlightAware ADS-B
10:33PM 39.9293 -74.9514 322° Northwest 214 246 3,000 -1,140 Descending FlightAware ADS-B
10:33PM 39.9328 -74.9576 306° West 214 246 2,900 -1,140 Descending FlightAware ADS-B
10:33PM 39.9342 -74.9638 286° West 214 246 2,800 -780 Descending FlightAware ADS-B
10:33PM 39.9333 -74.9778 265° West 221 254 2,700 -420 Descending FlightAware ADS-B
10:33PM 39.9316 -74.9842 251° West 225 259 2,700 -420 Level FlightAware ADS-B
10:34PM 39.9272 -74.9982 248° West 230 265 2,600 -240 Descending FlightAware ADS-B
10:34PM 39.9221 -75.0178 251° West 219 252 2,600 -240 Level FlightAware ADS-B
10:34PM 39.9162 -75.0397 251° West 215 247 2,500 -600 Descending FlightAware ADS-B
10:34PM 39.9126 -75.0541 252° West 202 232 2,300 -960 Descending FlightAware ADS-B
10:35PM 39.9109 -75.0612 253° West 196 226 2,200 -1,020 Descending FlightAware ADS-B
10:35PM 39.9060 -75.0800 251° West 192 221 1,900 -840 Descending FlightAware ADS-B
10:35PM 39.9023 -75.0936 250° West 173 199 1,800 -720 Descending FlightAware ADS-B
10:35PM 39.8990 -75.1056 250° West 165 190 1,600 -1,200 Descending FlightAware ADS-B
10:35PM 39.8973 -75.1130 253° West 161 185 1,400 -960 Descending FlightAware ADS-B
10:36PM 39.8941 -75.1285 255° West 145 167 1,200 -900 Descending FlightAware ADS-B
10:36PM 39.8923 -75.1370 255° West 144 166 1,000 -960 Descending FlightAware ADS-B
10:36PM 39.8900 -75.1491 256° West 133 153 800 -600 Descending FlightAware ADS-B
10:36PM 39.8890 -75.1537 254° West 131 151 800 -600 Level FlightAware ADS-B
10:36PM 39.8867 -75.1656 256° West 126 145 600 -840 Descending FlightAware ADS-B
10:37PM 39.8848 -75.1753 256° West 121 139 400 -840 Descending FlightAware ADS-B
10:37PM 39.8834 -75.1817 254° West 120 138 300 -720 Descending FlightAware ADS-B
10:37PM 39.8812 -75.1934 256° West 120 138 100 -720 Descending FlightAware ADS-B
10:38PM 39.8780 -75.2070 253° West 119 137 -240 Descending FlightAware
10:38PM 39.8750 -75.2220 255° West 121 139  Level FlightAware